sensor_id;sensor_type;location;lat;lon;timestamp;pressure;altitude;pressure_sealevel;temperature;humidity
61128;BME280;47013;42.664;23.242;2023-07-28T00:01:23;94091.50;;;16.05;55.75
61128;BME280;47013;42.664;23.242;2023-07-28T00:03:49;94088.63;;;15.96;55.61
61128;BME280;47013;42.664;23.242;2023-07-28T00:06:14;94095.00;;;15.92;55.24
61128;BME280;47013;42.664;23.242;2023-07-28T00:08:39;94092.03;;;16.00;55.23
61128;BME280;47013;42.664;23.242;2023-07-28T00:11:09;94093.22;;;15.99;54.43
61128;BME280;47013;42.664;23.242;2023-07-28T00:13:36;94087.69;;;16.02;54.72
61128;BME280;47013;42.664;23.242;2023-07-28T00:16:02;94084.84;;;16.06;54.27
61128;BME280;47013;42.664;23.242;2023-07-28T00:18:27;94092.78;;;15.87;55.24
61128;BME280;47013;42.664;23.242;2023-07-28T00:20:52;94083.72;;;15.78;56.05
61128;BME280;47013;42.664;23.242;2023-07-28T00:23:18;94083.25;;;15.79;56.06
61128;BME280;47013;42.664;23.242;2023-07-28T00:25:43;94085.34;;;15.88;55.96
61128;BME280;47013;42.664;23.242;2023-07-28T00:28:08;94080.75;;;15.85;54.85
61128;BME280;47013;42.664;23.242;2023-07-28T00:30:34;94069.28;;;15.90;55.00
61128;BME280;47013;42.664;23.242;2023-07-28T00:32:59;94072.56;;;15.98;54.60
61128;BME280;47013;42.664;23.242;2023-07-28T00:35:25;94072.81;;;16.03;54.47
61128;BME280;47013;42.664;23.242;2023-07-28T00:37:50;94081.22;;;16.09;53.54
61128;BME280;47013;42.664;23.242;2023-07-28T00:40:16;94074.53;;;16.10;53.32
61128;BME280;47013;42.664;23.242;2023-07-28T00:42:41;94075.41;;;16.07;52.38
61128;BME280;47013;42.664;23.242;2023-07-28T00:45:07;94075.63;;;16.00;52.93
61128;BME280;47013;42.664;23.242;2023-07-28T00:47:32;94080.56;;;16.05;52.46
61128;BME280;47013;42.664;23.242;2023-07-28T00:49:58;94074.31;;;16.04;52.27
61128;BME280;47013;42.664;23.242;2023-07-28T00:52:23;94074.78;;;16.03;52.18
61128;BME280;47013;42.664;23.242;2023-07-28T00:54:49;94074.31;;;16.04;51.56
61128;BME280;47013;42.664;23.242;2023-07-28T00:57:14;94072.13;;;15.99;51.44
61128;BME280;47013;42.664;23.242;2023-07-28T00:59:40;94068.72;;;15.95;51.86
61128;BME280;47013;42.664;23.242;2023-07-28T01:02:05;94062.94;;;15.93;51.54
61128;BME280;47013;42.664;23.242;2023-07-28T01:04:31;94071.56;;;15.79;51.76
61128;BME280;47013;42.664;23.242;2023-07-28T01:09:29;94083.25;;;15.67;51.38
61128;BME280;47013;42.664;23.242;2023-07-28T01:11:59;94082.38;;;15.70;53.08
61128;BME280;47013;42.664;23.242;2023-07-28T01:14:25;94080.94;;;15.65;54.45
61128;BME280;47013;42.664;23.242;2023-07-28T01:16:51;94078.22;;;15.65;54.87
61128;BME280;47013;42.664;23.242;2023-07-28T01:19:17;94081.03;;;15.61;54.92
61128;BME280;47013;42.664;23.242;2023-07-28T01:21:47;94084.53;;;15.62;54.50
61128;BME280;47013;42.664;23.242;2023-07-28T01:27:14;94075.56;;;15.32;54.93
61128;BME280;47013;42.664;23.242;2023-07-28T01:29:40;94083.25;;;14.92;55.37
61128;BME280;47013;42.664;23.242;2023-07-28T01:32:05;94088.16;;;14.52;56.64
61128;BME280;47013;42.664;23.242;2023-07-28T01:34:31;94084.56;;;14.55;56.99
61128;BME280;47013;42.664;23.242;2023-07-28T01:36:56;94084.50;;;14.59;57.26
61128;BME280;47013;42.664;23.242;2023-07-28T01:39:22;94087.81;;;14.66;57.59
61128;BME280;47013;42.664;23.242;2023-07-28T01:41:47;94070.06;;;14.74;57.50
61128;BME280;47013;42.664;23.242;2023-07-28T01:44:12;94079.22;;;14.52;58.28
61128;BME280;47013;42.664;23.242;2023-07-28T01:46:38;94078.53;;;14.48;59.43
61128;BME280;47013;42.664;23.242;2023-07-28T01:49:04;94080.28;;;14.22;59.44
61128;BME280;47013;42.664;23.242;2023-07-28T01:51:29;94073.97;;;14.08;60.07
61128;BME280;47013;42.664;23.242;2023-07-28T01:53:55;94085.53;;;14.12;60.49
61128;BME280;47013;42.664;23.242;2023-07-28T01:56:20;94087.19;;;14.26;60.92
61128;BME280;47013;42.664;23.242;2023-07-28T01:58:46;94093.16;;;14.37;60.74
61128;BME280;47013;42.664;23.242;2023-07-28T02:01:13;94091.75;;;14.49;61.05
61128;BME280;47013;42.664;23.242;2023-07-28T02:03:38;94093.94;;;14.38;60.82
61128;BME280;47013;42.664;23.242;2023-07-28T02:06:03;94092.53;;;14.30;61.81
61128;BME280;47013;42.664;23.242;2023-07-28T02:08:29;94085.41;;;14.20;61.31
61128;BME280;47013;42.664;23.242;2023-07-28T02:10:54;94088.69;;;14.11;61.86
61128;BME280;47013;42.664;23.242;2023-07-28T02:13:19;94088.53;;;14.18;62.11
61128;BME280;47013;42.664;23.242;2023-07-28T02:15:45;94088.03;;;14.23;62.37
61128;BME280;47013;42.664;23.242;2023-07-28T02:18:11;94088.63;;;14.31;62.12
61128;BME280;47013;42.664;23.242;2023-07-28T02:20:36;94096.31;;;14.36;62.03
61128;BME280;47013;42.664;23.242;2023-07-28T02:23:03;94095.78;;;14.41;62.08
61128;BME280;47013;42.664;23.242;2023-07-28T02:25:28;94091.09;;;14.41;62.30
61128;BME280;47013;42.664;23.242;2023-07-28T02:27:53;94093.78;;;14.45;62.08
61128;BME280;47013;42.664;23.242;2023-07-28T02:30:19;94087.56;;;14.44;62.58
61128;BME280;47013;42.664;23.242;2023-07-28T02:32:44;94091.44;;;14.43;61.89
61128;BME280;47013;42.664;23.242;2023-07-28T02:35:10;94092.25;;;14.44;62.69
61128;BME280;47013;42.664;23.242;2023-07-28T02:37:35;94083.25;;;14.43;62.96
61128;BME280;47013;42.664;23.242;2023-07-28T02:40:01;94096.88;;;14.47;62.95
61128;BME280;47013;42.664;23.242;2023-07-28T02:42:26;94096.66;;;14.38;62.85
61128;BME280;47013;42.664;23.242;2023-07-28T02:44:52;94099.38;;;14.38;63.16
61128;BME280;47013;42.664;23.242;2023-07-28T02:47:17;94093.06;;;14.41;63.74
61128;BME280;47013;42.664;23.242;2023-07-28T02:49:43;94093.16;;;14.37;63.72
61128;BME280;47013;42.664;23.242;2023-07-28T02:52:08;94091.63;;;14.36;64.03
61128;BME280;47013;42.664;23.242;2023-07-28T02:54:34;94085.06;;;14.34;64.65
61128;BME280;47013;42.664;23.242;2023-07-28T02:56:59;94088.91;;;14.36;64.41
61128;BME280;47013;42.664;23.242;2023-07-28T02:59:24;94087.28;;;14.39;63.96
61128;BME280;47013;42.664;23.242;2023-07-28T03:01:50;94090.34;;;14.41;63.73
61128;BME280;47013;42.664;23.242;2023-07-28T03:04:18;94090.44;;;14.37;63.94
61128;BME280;47013;42.664;23.242;2023-07-28T03:06:44;94092.53;;;14.30;64.43
61128;BME280;47013;42.664;23.242;2023-07-28T03:09:09;94092.44;;;14.17;64.66
61128;BME280;47013;42.664;23.242;2023-07-28T03:11:34;94090.66;;;14.10;65.15
61128;BME280;47013;42.664;23.242;2023-07-28T03:14:00;94091.91;;;14.06;65.37
61128;BME280;47013;42.664;23.242;2023-07-28T03:16:25;94100.94;;;14.03;65.68
61128;BME280;47013;42.664;23.242;2023-07-28T03:18:51;94089.78;;;13.97;65.94
61128;BME280;47013;42.664;23.242;2023-07-28T03:21:16;94091.88;;;13.90;66.46
61128;BME280;47013;42.664;23.242;2023-07-28T03:23:42;94098.19;;;13.86;66.26
61128;BME280;47013;42.664;23.242;2023-07-28T03:26:07;94100.66;;;13.81;65.61
61128;BME280;47013;42.664;23.242;2023-07-28T03:28:32;94106.09;;;13.81;66.08
61128;BME280;47013;42.664;23.242;2023-07-28T03:30:58;94105.59;;;13.66;66.49
61128;BME280;47013;42.664;23.242;2023-07-28T03:33:23;94106.75;;;13.69;66.51
61128;BME280;47013;42.664;23.242;2023-07-28T03:35:48;94112.53;;;13.71;67.56
61128;BME280;47013;42.664;23.242;2023-07-28T03:38:14;94113.22;;;13.75;66.85
61128;BME280;47013;42.664;23.242;2023-07-28T03:40:39;94114.50;;;13.70;67.56
61128;BME280;47013;42.664;23.242;2023-07-28T03:43:05;94115.25;;;13.51;67.50
61128;BME280;47013;42.664;23.242;2023-07-28T03:45:30;94118.28;;;13.56;67.95
61128;BME280;47013;42.664;23.242;2023-07-28T03:47:56;94113.38;;;13.68;68.47
61128;BME280;47013;42.664;23.242;2023-07-28T03:50:21;94115.09;;;13.78;67.60
61128;BME280;47013;42.664;23.242;2023-07-28T03:52:46;94107.13;;;13.87;67.97
61128;BME280;47013;42.664;23.242;2023-07-28T03:55:12;94109.72;;;13.94;67.32
61128;BME280;47013;42.664;23.242;2023-07-28T03:57:37;94111.94;;;13.99;67.33
61128;BME280;47013;42.664;23.242;2023-07-28T04:00:03;94113.66;;;14.09;68.18
61128;BME280;47013;42.664;23.242;2023-07-28T04:02:29;94119.72;;;14.17;67.92
61128;BME280;47013;42.664;23.242;2023-07-28T04:04:55;94114.53;;;14.23;67.16
61128;BME280;47013;42.664;23.242;2023-07-28T04:07:20;94113.25;;;14.27;67.37
61128;BME280;47013;42.664;23.242;2023-07-28T04:09:46;94114.31;;;14.33;66.80
61128;BME280;47013;42.664;23.242;2023-07-28T04:12:11;94105.69;;;14.35;67.07
61128;BME280;47013;42.664;23.242;2023-07-28T04:14:37;94112.16;;;14.41;66.86
61128;BME280;47013;42.664;23.242;2023-07-28T04:17:05;94113.03;;;14.38;67.52
61128;BME280;47013;42.664;23.242;2023-07-28T04:19:30;94118.69;;;14.47;67.84
61128;BME280;47013;42.664;23.242;2023-07-28T04:21:56;94117.41;;;14.52;68.01
61128;BME280;47013;42.664;23.242;2023-07-28T04:24:22;94124.56;;;14.45;67.49
61128;BME280;47013;42.664;23.242;2023-07-28T04:26:47;94123.06;;;14.41;66.91
61128;BME280;47013;42.664;23.242;2023-07-28T04:29:16;94130.19;;;14.55;67.28
61128;BME280;47013;42.664;23.242;2023-07-28T04:31:41;94118.56;;;14.34;67.28
61128;BME280;47013;42.664;23.242;2023-07-28T04:34:07;94126.22;;;14.39;67.98
61128;BME280;47013;42.664;23.242;2023-07-28T04:36:32;94123.63;;;14.52;68.37
61128;BME280;47013;42.664;23.242;2023-07-28T04:38:57;94121.91;;;14.58;67.58
61128;BME280;47013;42.664;23.242;2023-07-28T04:41:23;94131.38;;;14.70;67.59
61128;BME280;47013;42.664;23.242;2023-07-28T04:43:48;94130.19;;;14.71;66.96
61128;BME280;47013;42.664;23.242;2023-07-28T04:46:14;94125.44;;;14.75;66.97
61128;BME280;47013;42.664;23.242;2023-07-28T04:48:39;94128.13;;;14.91;66.81
61128;BME280;47013;42.664;23.242;2023-07-28T04:51:04;94133.09;;;14.64;67.38
61128;BME280;47013;42.664;23.242;2023-07-28T04:53:30;94125.53;;;14.71;67.08
61128;BME280;47013;42.664;23.242;2023-07-28T04:55:58;94115.63;;;14.78;67.21
61128;BME280;47013;42.664;23.242;2023-07-28T04:58:24;94120.97;;;14.97;66.50
61128;BME280;47013;42.664;23.242;2023-07-28T05:00:49;94121.66;;;15.01;65.49
61128;BME280;47013;42.664;23.242;2023-07-28T05:03:14;94118.59;;;14.99;66.76
61128;BME280;47013;42.664;23.242;2023-07-28T05:05:43;94117.13;;;15.11;65.99
61128;BME280;47013;42.664;23.242;2023-07-28T05:08:09;94116.75;;;15.25;65.58
61128;BME280;47013;42.664;23.242;2023-07-28T05:10:38;94121.66;;;15.30;64.91
61128;BME280;47013;42.664;23.242;2023-07-28T05:13:03;94122.16;;;15.42;64.43
61128;BME280;47013;42.664;23.242;2023-07-28T05:15:29;94121.19;;;15.48;64.40
61128;BME280;47013;42.664;23.242;2023-07-28T05:17:55;94119.03;;;15.56;63.67
61128;BME280;47013;42.664;23.242;2023-07-28T05:20:21;94117.75;;;15.60;63.74
61128;BME280;47013;42.664;23.242;2023-07-28T05:22:46;94121.66;;;15.76;63.71
61128;BME280;47013;42.664;23.242;2023-07-28T05:25:12;94120.84;;;15.75;64.04
61128;BME280;47013;42.664;23.242;2023-07-28T05:27:38;94122.97;;;15.84;63.02
61128;BME280;47013;42.664;23.242;2023-07-28T05:30:03;94118.72;;;15.96;61.53
61128;BME280;47013;42.664;23.242;2023-07-28T05:32:29;94119.28;;;16.03;60.58
61128;BME280;47013;42.664;23.242;2023-07-28T05:34:54;94126.94;;;16.08;60.46
61128;BME280;47013;42.664;23.242;2023-07-28T05:37:20;94125.88;;;16.18;59.85
61128;BME280;47013;42.664;23.242;2023-07-28T05:39:45;94120.94;;;16.26;59.93
61128;BME280;47013;42.664;23.242;2023-07-28T05:42:10;94111.97;;;16.38;59.03
61128;BME280;47013;42.664;23.242;2023-07-28T05:44:36;94108.03;;;16.39;60.19
61128;BME280;47013;42.664;23.242;2023-07-28T05:47:01;94116.59;;;16.41;58.68
61128;BME280;47013;42.664;23.242;2023-07-28T05:49:27;94108.78;;;16.52;58.93
61128;BME280;47013;42.664;23.242;2023-07-28T05:51:52;94102.97;;;16.63;58.33
61128;BME280;47013;42.664;23.242;2023-07-28T05:54:18;94108.25;;;16.70;57.94
61128;BME280;47013;42.664;23.242;2023-07-28T05:56:44;94102.31;;;16.85;57.01
61128;BME280;47013;42.664;23.242;2023-07-28T05:59:09;94102.06;;;16.92;56.36
61128;BME280;47013;42.664;23.242;2023-07-28T06:01:35;94100.50;;;17.03;55.79
61128;BME280;47013;42.664;23.242;2023-07-28T06:04:00;94099.75;;;17.03;55.54
61128;BME280;47013;42.664;23.242;2023-07-28T06:06:26;94097.28;;;17.18;55.63
61128;BME280;47013;42.664;23.242;2023-07-28T06:08:53;94092.97;;;17.29;55.00
61128;BME280;47013;42.664;23.242;2023-07-28T06:11:18;94096.25;;;17.37;55.42
61128;BME280;47013;42.664;23.242;2023-07-28T06:13:44;94092.25;;;17.51;54.29
61128;BME280;47013;42.664;23.242;2023-07-28T06:16:11;94093.84;;;17.61;53.79
61128;BME280;47013;42.664;23.242;2023-07-28T06:18:37;94094.03;;;17.66;54.71
61128;BME280;47013;42.664;23.242;2023-07-28T06:21:02;94103.94;;;17.86;53.23
61128;BME280;47013;42.664;23.242;2023-07-28T06:23:28;94094.53;;;17.96;52.04
61128;BME280;47013;42.664;23.242;2023-07-28T06:25:53;94095.34;;;18.06;51.49
61128;BME280;47013;42.664;23.242;2023-07-28T06:28:20;94093.41;;;18.15;52.30
61128;BME280;47013;42.664;23.242;2023-07-28T06:30:46;94092.88;;;18.30;52.61
61128;BME280;47013;42.664;23.242;2023-07-28T06:33:11;94092.91;;;18.39;51.55
61128;BME280;47013;42.664;23.242;2023-07-28T06:35:37;94088.81;;;18.43;51.28
61128;BME280;47013;42.664;23.242;2023-07-28T06:38:02;94087.31;;;18.51;51.21
61128;BME280;47013;42.664;23.242;2023-07-28T06:40:28;94086.47;;;18.64;50.14
61128;BME280;47013;42.664;23.242;2023-07-28T06:42:53;94086.47;;;18.73;50.53
61128;BME280;47013;42.664;23.242;2023-07-28T06:45:19;94084.25;;;18.90;50.52
61128;BME280;47013;42.664;23.242;2023-07-28T06:47:45;94091.44;;;18.96;50.17
61128;BME280;47013;42.664;23.242;2023-07-28T06:50:11;94089.78;;;19.17;49.37
61128;BME280;47013;42.664;23.242;2023-07-28T06:52:37;94090.09;;;19.28;48.71
61128;BME280;47013;42.664;23.242;2023-07-28T06:55:03;94088.09;;;19.38;48.09
61128;BME280;47013;42.664;23.242;2023-07-28T06:57:29;94095.00;;;19.42;48.08
61128;BME280;47013;42.664;23.242;2023-07-28T06:59:54;94091.78;;;19.62;47.79
61128;BME280;47013;42.664;23.242;2023-07-28T07:02:20;94094.38;;;19.84;47.61
61128;BME280;47013;42.664;23.242;2023-07-28T07:04:45;94093.28;;;19.91;46.33
61128;BME280;47013;42.664;23.242;2023-07-28T07:07:11;94091.09;;;20.04;46.61
61128;BME280;47013;42.664;23.242;2023-07-28T07:09:36;94090.78;;;20.20;46.02
61128;BME280;47013;42.664;23.242;2023-07-28T07:12:02;94100.56;;;20.21;45.68
61128;BME280;47013;42.664;23.242;2023-07-28T07:14:27;94086.13;;;20.36;46.07
61128;BME280;47013;42.664;23.242;2023-07-28T07:16:53;94084.91;;;20.46;45.50
61128;BME280;47013;42.664;23.242;2023-07-28T07:19:19;94093.09;;;20.55;44.77
61128;BME280;47013;42.664;23.242;2023-07-28T07:21:44;94094.97;;;20.49;44.86
61128;BME280;47013;42.664;23.242;2023-07-28T07:24:10;94096.47;;;20.59;44.82
61128;BME280;47013;42.664;23.242;2023-07-28T07:26:39;94096.41;;;20.68;44.91
61128;BME280;47013;42.664;23.242;2023-07-28T07:29:08;94091.28;;;20.85;44.60
61128;BME280;47013;42.664;23.242;2023-07-28T07:31:35;94089.00;;;21.07;43.88
61128;BME280;47013;42.664;23.242;2023-07-28T07:34:00;94092.84;;;21.10;44.45
61128;BME280;47013;42.664;23.242;2023-07-28T07:36:26;94094.88;;;21.24;43.87
61128;BME280;47013;42.664;23.242;2023-07-28T07:38:51;94099.31;;;21.21;43.63
61128;BME280;47013;42.664;23.242;2023-07-28T07:41:17;94098.97;;;21.05;44.11
61128;BME280;47013;42.664;23.242;2023-07-28T07:43:44;94100.63;;;21.11;43.53
61128;BME280;47013;42.664;23.242;2023-07-28T07:46:10;94096.28;;;21.19;44.90
61128;BME280;47013;42.664;23.242;2023-07-28T07:48:35;94097.03;;;21.44;43.43
61128;BME280;47013;42.664;23.242;2023-07-28T07:51:01;94100.78;;;21.56;42.91
61128;BME280;47013;42.664;23.242;2023-07-28T07:53:26;94100.25;;;21.66;43.05
61128;BME280;47013;42.664;23.242;2023-07-28T07:55:51;94100.34;;;21.87;42.12
61128;BME280;47013;42.664;23.242;2023-07-28T07:58:17;94103.03;;;21.81;42.33
61128;BME280;47013;42.664;23.242;2023-07-28T08:00:42;94105.16;;;22.01;43.26
61128;BME280;47013;42.664;23.242;2023-07-28T08:03:09;94095.38;;;22.15;41.97
61128;BME280;47013;42.664;23.242;2023-07-28T08:05:35;94103.53;;;22.38;41.88
61128;BME280;47013;42.664;23.242;2023-07-28T08:08:00;94096.66;;;22.63;40.62
61128;BME280;47013;42.664;23.242;2023-07-28T08:10:26;94094.06;;;22.75;39.86
61128;BME280;47013;42.664;23.242;2023-07-28T08:12:55;94098.31;;;22.90;41.09
61128;BME280;47013;42.664;23.242;2023-07-28T08:15:20;94098.00;;;23.03;39.74
61128;BME280;47013;42.664;23.242;2023-07-28T08:17:46;94099.53;;;23.24;39.50
61128;BME280;47013;42.664;23.242;2023-07-28T08:20:12;94091.81;;;23.49;38.94
61128;BME280;47013;42.664;23.242;2023-07-28T08:22:37;94085.41;;;23.58;37.79
61128;BME280;47013;42.664;23.242;2023-07-28T08:25:04;94086.16;;;23.58;37.59
61128;BME280;47013;42.664;23.242;2023-07-28T08:27:29;94087.38;;;23.57;38.02
61128;BME280;47013;42.664;23.242;2023-07-28T08:29:55;94092.84;;;23.72;37.72
61128;BME280;47013;42.664;23.242;2023-07-28T08:32:20;94090.75;;;23.87;37.09
61128;BME280;47013;42.664;23.242;2023-07-28T08:34:47;94090.03;;;23.92;37.10
61128;BME280;47013;42.664;23.242;2023-07-28T08:37:13;94099.16;;;23.98;36.79
61128;BME280;47013;42.664;23.242;2023-07-28T08:39:38;94094.66;;;24.01;36.34
61128;BME280;47013;42.664;23.242;2023-07-28T08:42:04;94091.50;;;24.13;36.53
61128;BME280;47013;42.664;23.242;2023-07-28T08:44:34;94094.53;;;24.41;36.28
61128;BME280;47013;42.664;23.242;2023-07-28T08:47:01;94095.50;;;24.64;35.76
61128;BME280;47013;42.664;23.242;2023-07-28T08:49:27;94088.28;;;24.78;34.93
61128;BME280;47013;42.664;23.242;2023-07-28T08:51:57;94085.69;;;25.01;35.41
61128;BME280;47013;42.664;23.242;2023-07-28T08:54:23;94080.72;;;25.21;34.46
61128;BME280;47013;42.664;23.242;2023-07-28T08:56:48;94076.75;;;25.34;34.48
61128;BME280;47013;42.664;23.242;2023-07-28T08:59:21;94070.97;;;25.37;33.96
61128;BME280;47013;42.664;23.242;2023-07-28T09:01:50;94069.28;;;25.56;34.29
61128;BME280;47013;42.664;23.242;2023-07-28T09:04:15;94058.53;;;25.81;33.64
61128;BME280;47013;42.664;23.242;2023-07-28T09:06:45;94062.28;;;25.78;33.81
61128;BME280;47013;42.664;23.242;2023-07-28T09:09:10;94054.78;;;26.06;32.98
61128;BME280;47013;42.664;23.242;2023-07-28T09:11:50;94054.53;;;26.15;33.09
61128;BME280;47013;42.664;23.242;2023-07-28T09:14:18;94047.22;;;26.40;32.93
61128;BME280;47013;42.664;23.242;2023-07-28T09:16:44;94043.97;;;26.59;31.51
61128;BME280;47013;42.664;23.242;2023-07-28T09:19:10;94041.41;;;26.72;31.48
61128;BME280;47013;42.664;23.242;2023-07-28T09:21:37;94039.59;;;26.91;31.91
61128;BME280;47013;42.664;23.242;2023-07-28T09:24:07;94039.84;;;26.99;31.37
61128;BME280;47013;42.664;23.242;2023-07-28T09:26:42;94033.25;;;27.13;30.58
61128;BME280;47013;42.664;23.242;2023-07-28T09:29:21;94028.59;;;27.32;31.49
61128;BME280;47013;42.664;23.242;2023-07-28T09:31:49;94028.59;;;27.32;29.86
61128;BME280;47013;42.664;23.242;2023-07-28T09:34:26;94018.41;;;27.52;30.05
61128;BME280;47013;42.664;23.242;2023-07-28T09:36:53;94015.63;;;27.46;29.72
61128;BME280;47013;42.664;23.242;2023-07-28T09:39:19;94013.31;;;27.56;29.67
61128;BME280;47013;42.664;23.242;2023-07-28T09:41:46;94014.81;;;27.68;29.97
61128;BME280;47013;42.664;23.242;2023-07-28T09:44:12;94006.91;;;27.78;28.89
61128;BME280;47013;42.664;23.242;2023-07-28T09:46:49;94003.53;;;27.90;29.43
61128;BME280;47013;42.664;23.242;2023-07-28T09:49:21;94006.44;;;27.74;28.99
61128;BME280;47013;42.664;23.242;2023-07-28T09:51:48;93998.19;;;27.92;28.85
61128;BME280;47013;42.664;23.242;2023-07-28T09:54:24;94007.69;;;28.14;28.74
61128;BME280;47013;42.664;23.242;2023-07-28T09:56:57;93996.94;;;28.29;28.14
61128;BME280;47013;42.664;23.242;2023-07-28T09:59:37;93997.09;;;28.37;27.90
61128;BME280;47013;42.664;23.242;2023-07-28T10:02:04;93994.78;;;28.71;27.54
61128;BME280;47013;42.664;23.242;2023-07-28T10:04:31;93999.72;;;28.84;27.88
61128;BME280;47013;42.664;23.242;2023-07-28T10:06:57;93986.28;;;28.82;27.84
61128;BME280;47013;42.664;23.242;2023-07-28T10:09:28;93986.00;;;28.86;27.67
61128;BME280;47013;42.664;23.242;2023-07-28T10:11:55;93993.09;;;29.11;27.36
61128;BME280;47013;42.664;23.242;2023-07-28T10:14:36;93999.78;;;29.46;26.86
61128;BME280;47013;42.664;23.242;2023-07-28T10:17:05;93983.03;;;29.46;26.82
61128;BME280;47013;42.664;23.242;2023-07-28T10:19:39;93990.59;;;29.51;27.59
61128;BME280;47013;42.664;23.242;2023-07-28T10:22:09;93993.41;;;29.26;24.65
61128;BME280;47013;42.664;23.242;2023-07-28T10:24:56;93991.88;;;29.06;25.06
61128;BME280;47013;42.664;23.242;2023-07-28T10:27:49;93982.84;;;28.70;26.56
61128;BME280;47013;42.664;23.242;2023-07-28T10:30:15;93976.81;;;28.66;25.81
61128;BME280;47013;42.664;23.242;2023-07-28T10:32:48;93973.16;;;29.01;25.94
61128;BME280;47013;42.664;23.242;2023-07-28T10:37:45;93965.72;;;29.28;24.90
61128;BME280;47013;42.664;23.242;2023-07-28T10:42:48;93968.66;;;29.92;25.94
61128;BME280;47013;42.664;23.242;2023-07-28T10:45:14;93966.41;;;29.91;22.81
61128;BME280;47013;42.664;23.242;2023-07-28T10:47:41;93965.13;;;30.11;24.08
61128;BME280;47013;42.664;23.242;2023-07-28T10:50:09;93956.25;;;30.26;23.54
61128;BME280;47013;42.664;23.242;2023-07-28T10:52:39;93949.09;;;30.57;23.27
61128;BME280;47013;42.664;23.242;2023-07-28T10:55:15;93953.97;;;30.69;23.18
61128;BME280;47013;42.664;23.242;2023-07-28T10:57:44;93959.41;;;30.35;22.80
61128;BME280;47013;42.664;23.242;2023-07-28T11:00:12;93950.66;;;30.26;23.25
61128;BME280;47013;42.664;23.242;2023-07-28T11:02:53;93948.53;;;30.45;22.87
61128;BME280;47013;42.664;23.242;2023-07-28T11:07:47;93932.44;;;30.64;22.74
61128;BME280;47013;42.664;23.242;2023-07-28T11:10:13;93936.94;;;30.54;22.61
61128;BME280;47013;42.664;23.242;2023-07-28T11:12:44;93937.63;;;30.73;22.57
61128;BME280;47013;42.664;23.242;2023-07-28T11:15:11;93938.69;;;30.83;22.84
61128;BME280;47013;42.664;23.242;2023-07-28T11:17:39;93929.75;;;30.98;22.79
61128;BME280;47013;42.664;23.242;2023-07-28T11:20:14;93928.56;;;31.07;21.89
61128;BME280;47013;42.664;23.242;2023-07-28T11:22:43;93924.47;;;30.95;22.79
61128;BME280;47013;42.664;23.242;2023-07-28T11:25:10;93920.19;;;30.67;22.50
61128;BME280;47013;42.664;23.242;2023-07-28T11:27:36;93920.94;;;30.68;22.28
61128;BME280;47013;42.664;23.242;2023-07-28T11:30:03;93918.03;;;30.87;22.42
61128;BME280;47013;42.664;23.242;2023-07-28T11:32:30;93912.72;;;31.09;22.34
61128;BME280;47013;42.664;23.242;2023-07-28T11:35:02;93904.84;;;31.34;22.57
61128;BME280;47013;42.664;23.242;2023-07-28T11:37:29;93902.28;;;31.23;21.17
61128;BME280;47013;42.664;23.242;2023-07-28T11:39:55;93903.78;;;31.11;22.20
61128;BME280;47013;42.664;23.242;2023-07-28T11:42:22;93899.41;;;30.63;23.16
61128;BME280;47013;42.664;23.242;2023-07-28T11:44:47;93891.97;;;30.92;23.14
61128;BME280;47013;42.664;23.242;2023-07-28T11:47:17;93903.56;;;31.09;22.15
61128;BME280;47013;42.664;23.242;2023-07-28T11:49:49;93898.41;;;31.26;22.97
61128;BME280;47013;42.664;23.242;2023-07-28T11:52:15;93903.63;;;31.43;22.79
61128;BME280;47013;42.664;23.242;2023-07-28T11:54:41;93914.47;;;31.60;21.91
61128;BME280;47013;42.664;23.242;2023-07-28T11:57:08;93905.84;;;31.58;22.04
61128;BME280;47013;42.664;23.242;2023-07-28T11:59:34;93906.34;;;31.69;22.24
61128;BME280;47013;42.664;23.242;2023-07-28T12:02:03;93903.31;;;31.81;22.69
61128;BME280;47013;42.664;23.242;2023-07-28T12:04:36;93900.78;;;30.82;22.95
61128;BME280;47013;42.664;23.242;2023-07-28T12:09:33;93889.19;;;30.78;24.05
61128;BME280;47013;42.664;23.242;2023-07-28T12:11:58;93879.81;;;30.76;23.56
61128;BME280;47013;42.664;23.242;2023-07-28T12:14:34;93890.22;;;31.02;23.04
61128;BME280;47013;42.664;23.242;2023-07-28T12:17:00;93881.72;;;31.07;23.78
61128;BME280;47013;42.664;23.242;2023-07-28T12:19:26;93883.63;;;31.39;23.34
61128;BME280;47013;42.664;23.242;2023-07-28T12:21:51;93875.22;;;31.60;22.68
61128;BME280;47013;42.664;23.242;2023-07-28T12:24:16;93874.84;;;31.77;22.53
61128;BME280;47013;42.664;23.242;2023-07-28T12:26:42;93882.47;;;31.21;23.93
61128;BME280;47013;42.664;23.242;2023-07-28T12:29:07;93870.56;;;31.42;23.97
61128;BME280;47013;42.664;23.242;2023-07-28T12:31:33;93874.31;;;31.44;23.80
61128;BME280;47013;42.664;23.242;2023-07-28T12:33:58;93864.34;;;31.22;23.69
61128;BME280;47013;42.664;23.242;2023-07-28T12:36:23;93863.53;;;31.48;24.14
61128;BME280;47013;42.664;23.242;2023-07-28T12:38:49;93868.97;;;31.88;24.32
61128;BME280;47013;42.664;23.242;2023-07-28T12:41:14;93866.53;;;31.84;23.67
61128;BME280;47013;42.664;23.242;2023-07-28T12:43:40;93863.97;;;32.15;23.07
61128;BME280;47013;42.664;23.242;2023-07-28T12:46:05;93858.31;;;32.28;23.33
61128;BME280;47013;42.664;23.242;2023-07-28T12:48:30;93868.44;;;32.31;22.90
61128;BME280;47013;42.664;23.242;2023-07-28T12:50:56;93867.59;;;32.23;23.87
61128;BME280;47013;42.664;23.242;2023-07-28T12:53:21;93864.06;;;32.43;22.80
61128;BME280;47013;42.664;23.242;2023-07-28T12:55:46;93852.81;;;32.22;23.33
61128;BME280;47013;42.664;23.242;2023-07-28T12:58:12;93848.84;;;32.39;23.61
61128;BME280;47013;42.664;23.242;2023-07-28T13:00:37;93848.50;;;32.42;23.00
61128;BME280;47013;42.664;23.242;2023-07-28T13:03:06;93853.03;;;32.24;22.93